Time;durP1;ratioP1;P1;durP2;ratioP2;P2;SDS_P1;SDS_P2;PMS_P1;PMS_P2;Temp;Humidity;BMP_temperature;BMP_pressure;BME280_temperature;BME280_humidity;BME280_pressure;Samples;Min_cycle;Max_cycle;Signal;HPM_P1;HPM_P2
2021/12/23 00:01:56;;;;;;;12.80;8.65;;;;;;;10.24;66.65;102263.69;5045465;27;102328;-48
2021/12/23 00:04:22;;;;;;;12.20;9.38;;;;;;;10.23;66.17;102257.44;5050650;27;102401;-49
2021/12/23 00:06:48;;;;;;;10.52;8.57;;;;;;;10.24;66.84;102266.44;5047946;27;102731;-48
2021/12/23 00:09:15;;;;;;;11.43;7.97;;;;;;;10.24;66.05;102261.84;5032973;27;103985;-48
2021/12/23 00:11:44;;;;;;;11.75;9.30;;;;;;;10.22;66.25;102263.94;5040161;27;102324;-48
2021/12/23 00:14:11;;;;;;;10.48;7.93;;;;;;;10.23;66.81;102265.59;5046463;27;102549;-49
2021/12/23 00:17:05;;;;;;;11.57;7.80;;;;;;;10.23;66.66;102265.59;5044707;27;102442;-48
2021/12/23 00:24:43;;;;;;;9.45;7.57;;;;;;;10.23;66.04;102267.50;5050553;27;102249;-49
2021/12/23 00:27:12;;;;;;;9.98;8.20;;;;;;;10.22;66.65;102269.38;5038180;27;102279;-48
2021/12/23 00:29:39;;;;;;;9.82;7.50;;;;;;;10.23;65.93;102278.38;5047887;27;103882;-48
2021/12/23 00:32:08;;;;;;;9.95;7.88;;;;;;;10.21;66.10;102278.63;5037380;27;102241;-48
2021/12/23 00:34:35;;;;;;;10.15;8.18;;;;;;;10.22;65.94;102272.09;5018489;27;102470;-49
2021/12/23 00:37:04;;;;;;;10.35;7.90;;;;;;;10.22;66.47;102274.00;5036721;27;102188;-48
2021/12/23 00:39:32;;;;;;;10.05;7.90;;;;;;;10.22;66.35;102274.84;5033536;27;103947;-48
2021/12/23 00:42:06;;;;;;;9.77;7.80;;;;;;;10.22;66.17;102271.28;5051560;27;102224;-48
2021/12/23 00:44:35;;;;;;;9.15;7.25;;;;;;;10.22;65.96;102274.84;5042379;27;102682;-48
2021/12/23 00:47:02;;;;;;;9.88;7.45;;;;;;;10.22;66.18;102269.38;5049833;27;102811;-48
2021/12/23 00:49:29;;;;;;;10.70;7.95;;;;;;;10.22;66.05;102269.38;5053735;27;103914;-48
2021/12/23 00:51:57;;;;;;;10.18;7.63;;;;;;;10.21;66.40;102267.75;5052475;27;102733;-48
2021/12/23 00:54:23;;;;;;;10.05;7.78;;;;;;;10.21;66.74;102267.75;5041561;27;102566;-48
2021/12/23 00:56:51;;;;;;;9.40;7.43;;;;;;;10.21;66.17;102266.91;5038349;27;102591;-48
2021/12/23 00:59:17;;;;;;;10.27;7.60;;;;;;;10.20;66.29;102265.22;5044310;27;104680;-50
2021/12/23 01:01:47;;;;;;;14.02;7.43;;;;;;;10.21;66.37;102272.34;5039993;27;102422;-48
2021/12/23 01:04:13;;;;;;;9.15;7.28;;;;;;;10.20;66.52;102266.06;5046694;27;102271;-48
2021/12/23 01:06:39;;;;;;;10.63;7.45;;;;;;;10.20;66.14;102255.16;5037505;27;102325;-48
2021/12/23 01:09:07;;;;;;;8.77;7.30;;;;;;;10.21;66.87;102258.75;5033174;27;103958;-49
2021/12/23 01:11:33;;;;;;;8.98;7.07;;;;;;;10.20;65.98;102254.34;5050626;27;102220;-48
2021/12/23 01:14:25;;;;;;;9.55;7.30;;;;;;;10.21;66.37;102258.75;5041728;27;102205;-48
2021/12/23 01:19:20;;;;;;;9.88;7.55;;;;;;;10.20;66.01;102249.72;5044605;27;103958;-48
2021/12/23 01:21:46;;;;;;;8.07;6.95;;;;;;;10.20;65.83;102260.63;5041361;27;102108;-51
2021/12/23 01:24:13;;;;;;;8.63;6.90;;;;;;;10.21;66.39;102261.47;5034035;27;102695;-49
2021/12/23 01:26:39;;;;;;;8.38;7.32;;;;;;;10.20;66.14;102266.06;5037172;27;102278;-48
2021/12/23 01:29:07;;;;;;;9.52;6.82;;;;;;;10.19;66.52;102261.69;5034498;27;104037;-48
2021/12/23 01:31:37;;;;;;;8.73;6.88;;;;;;;10.20;66.56;102260.63;5035394;27;102250;-49
2021/12/23 01:34:06;;;;;;;8.93;6.70;;;;;;;10.19;66.02;102256.25;5038309;27;102584;-49
2021/12/23 01:36:34;;;;;;;9.18;7.35;;;;;;;10.19;66.80;102263.56;5050154;27;102235;-48
2021/12/23 01:39:02;;;;;;;7.75;6.78;;;;;;;10.19;66.53;102264.41;5036209;27;102750;-49
2021/12/23 01:41:28;;;;;;;9.35;7.35;;;;;;;10.18;66.30;102257.31;5051116;27;102245;-48
2021/12/23 01:43:55;;;;;;;9.18;6.68;;;;;;;10.19;66.02;102252.69;5042108;27;102327;-48
2021/12/23 01:46:22;;;;;;;9.00;7.30;;;;;;;10.18;66.37;102262.75;5050328;27;102176;-48
2021/12/23 01:48:51;;;;;;;8.73;6.97;;;;;;;10.19;66.18;102258.13;5035972;27;104371;-50
2021/12/23 01:51:20;;;;;;;9.25;6.65;;;;;;;10.18;66.13;102251.88;5035129;27;102337;-48
2021/12/23 01:53:46;;;;;;;8.52;7.47;;;;;;;10.18;66.37;102260.03;5036702;27;102299;-50
2021/12/23 01:56:13;;;;;;;8.70;6.90;;;;;;;10.18;66.29;102262.75;5037433;27;102500;-48
2021/12/23 01:58:40;;;;;;;8.68;6.80;;;;;;;10.18;66.11;102251.06;5035018;27;103939;-49
2021/12/23 02:01:14;;;;;;;8.20;7.00;;;;;;;10.18;66.21;102241.00;5034512;27;102162;-48
2021/12/23 02:03:41;;;;;;;9.20;7.03;;;;;;;10.17;66.61;102244.78;5040416;27;102189;-49
2021/12/23 02:06:08;;;;;;;8.60;6.50;;;;;;;10.17;66.31;102239.34;5039993;27;102498;-48
2021/12/23 02:08:41;;;;;;;8.65;6.57;;;;;;;10.17;66.24;102258.38;5034804;27;103988;-49
2021/12/23 02:11:09;;;;;;;8.25;6.43;;;;;;;10.16;66.47;102253.97;5035759;27;102231;-48
2021/12/23 02:13:36;;;;;;;8.43;6.20;;;;;;;10.15;66.26;102257.78;5041028;27;102332;-49
2021/12/23 02:16:03;;;;;;;8.38;6.40;;;;;;;10.16;66.44;102262.16;5050431;27;102674;-49
2021/12/23 02:18:30;;;;;;;7.60;6.30;;;;;;;10.16;65.95;102264.03;5043049;27;103936;-49
2021/12/23 02:20:58;;;;;;;7.65;6.38;;;;;;;10.17;66.29;102261.09;5041107;27;102673;-48
2021/12/23 02:23:26;;;;;;;8.65;6.32;;;;;;;10.17;66.60;102254.81;5035377;27;102270;-48
2021/12/23 02:25:53;;;;;;;7.80;6.55;;;;;;;10.15;66.13;102257.78;5047113;27;102624;-49
2021/12/23 02:28:21;;;;;;;9.07;6.78;;;;;;;10.16;66.45;102255.88;5049216;27;104129;-48
2021/12/23 02:30:51;;;;;;;6.80;6.10;;;;;;;10.16;66.02;102264.03;5043218;27;102350;-48
2021/12/23 02:33:19;;;;;;;7.22;6.00;;;;;;;10.15;65.98;102260.50;5042498;27;102154;-49
2021/12/23 02:35:46;;;;;;;8.82;6.97;;;;;;;10.15;66.03;102262.38;5040338;27;102727;-50
2021/12/23 02:38:13;;;;;;;7.85;6.43;;;;;;;10.14;66.44;102261.56;5049974;27;104078;-49
2021/12/23 02:40:42;;;;;;;7.15;6.15;;;;;;;10.15;66.28;102257.78;5039924;27;102171;-48
2021/12/23 02:43:11;;;;;;;8.00;6.10;;;;;;;10.14;66.80;102261.56;5037931;27;102237;-49
2021/12/23 02:45:38;;;;;;;8.35;6.20;;;;;;;10.13;66.71;102259.88;5052580;27;102249;-48
2021/12/23 02:48:11;;;;;;;7.97;6.00;;;;;;;10.14;66.19;102266.19;5045975;27;103814;-49
2021/12/23 02:50:39;;;;;;;8.02;6.05;;;;;;;10.13;66.22;102265.31;5039152;27;102396;-48
2021/12/23 02:53:05;;;;;;;6.93;6.22;;;;;;;10.14;65.97;102272.44;5037140;27;102204;-48
2021/12/23 02:55:33;;;;;;;7.80;6.30;;;;;;;10.12;66.48;102271.81;5040003;27;102235;-48
2021/12/23 02:57:59;;;;;;;7.68;6.00;;;;;;;10.14;66.50;102277.06;5039824;27;104043;-48
2021/12/23 03:00:26;;;;;;;8.95;6.43;;;;;;;10.13;66.27;102270.75;5042741;27;102146;-48
2021/12/23 03:02:52;;;;;;;8.13;6.25;;;;;;;10.14;66.48;102272.44;5050562;27;102156;-49
2021/12/23 03:05:18;;;;;;;7.68;6.28;;;;;;;10.13;66.24;102265.31;5038365;27;102539;-48
2021/12/23 03:07:45;;;;;;;7.57;5.40;;;;;;;10.13;66.15;102265.31;5042834;27;103719;-48
2021/12/23 03:10:15;;;;;;;8.68;6.03;;;;;;;10.12;66.14;102263.66;5039983;27;102529;-49
2021/12/23 03:12:43;;;;;;;6.72;5.80;;;;;;;10.12;66.04;102269.09;5036968;27;102204;-48
2021/12/23 03:15:10;;;;;;;8.48;6.20;;;;;;;10.11;65.95;102268.28;5039127;27;102311;-48
2021/12/23 03:17:38;;;;;;;6.93;5.87;;;;;;;10.11;66.48;102278.34;5036875;27;103765;-49
2021/12/23 03:20:05;;;;;;;7.32;5.57;;;;;;;10.11;65.92;102273.72;5037380;27;102016;-48
2021/12/23 03:22:32;;;;;;;6.87;5.57;;;;;;;10.11;66.43;102284.59;5042449;27;104043;-48
2021/12/23 03:24:59;;;;;;;6.90;5.75;;;;;;;10.12;65.99;102290.88;5046443;27;102854;-48
2021/12/23 03:27:26;;;;;;;7.15;6.10;;;;;;;10.11;66.19;102294.66;5049121;27;104197;-48
2021/12/23 03:29:56;;;;;;;8.15;5.95;;;;;;;10.10;66.68;102296.56;5051732;27;102394;-48
2021/12/23 03:32:23;;;;;;;6.88;6.18;;;;;;;10.11;66.07;102294.66;5038298;27;102376;-48
2021/12/23 03:34:50;;;;;;;8.52;5.60;;;;;;;10.11;66.93;102297.38;5037292;27;102596;-48
2021/12/23 03:37:17;;;;;;;7.00;5.63;;;;;;;10.10;66.58;102299.28;5047470;27;104121;-48
2021/12/23 03:39:43;;;;;;;8.32;5.82;;;;;;;10.10;65.97;102302.00;5035612;27;102098;-49
2021/12/23 03:42:10;;;;;;;7.53;6.35;;;;;;;10.11;66.77;102305.53;5035550;27;102412;-48
2021/12/23 03:44:36;;;;;;;7.70;6.35;;;;;;;10.10;66.82;102298.44;5036881;27;102333;-49
2021/12/23 03:47:05;;;;;;;7.85;6.13;;;;;;;10.11;66.64;102300.09;5034678;27;103744;-48
2021/12/23 03:49:32;;;;;;;7.90;6.43;;;;;;;10.10;66.18;102298.44;5050370;27;102197;-48
2021/12/23 03:51:58;;;;;;;7.75;6.40;;;;;;;10.10;66.20;102298.44;5053571;27;102260;-49
2021/12/23 03:54:25;;;;;;;6.68;5.95;;;;;;;10.09;66.64;102294.88;5050716;27;102227;-48
2021/12/23 03:56:52;;;;;;;8.98;6.70;;;;;;;10.09;66.46;102302.22;5041116;27;104112;-48
2021/12/23 03:59:19;;;;;;;7.85;6.82;;;;;;;10.09;66.04;102294.03;5037605;27;102185;-48
2021/12/23 04:01:45;;;;;;;8.38;7.00;;;;;;;10.09;66.55;102302.22;5044336;27;102192;-49
2021/12/23 04:04:13;;;;;;;7.03;5.97;;;;;;;10.09;66.48;102291.31;5046111;27;102556;-50
2021/12/23 04:06:40;;;;;;;7.95;6.45;;;;;;;10.09;66.71;102296.75;5051407;27;105754;-48
2021/12/23 04:09:06;;;;;;;7.50;6.18;;;;;;;10.08;66.02;102293.22;5052213;27;102473;-48
2021/12/23 04:11:33;;;;;;;8.95;6.93;;;;;;;10.07;66.69;102293.47;5049386;27;102223;-48
2021/12/23 04:13:59;;;;;;;6.85;6.15;;;;;;;10.08;66.47;102289.69;5042565;27;102878;-48
2021/12/23 04:16:26;;;;;;;7.38;6.22;;;;;;;10.08;66.04;102297.84;5051924;27;104201;-48
2021/12/23 04:18:54;;;;;;;6.80;5.88;;;;;;;10.07;66.06;102299.72;5042944;27;102112;-48
2021/12/23 04:21:22;;;;;;;7.28;6.25;;;;;;;10.08;66.73;102295.13;5043755;27;101994;-48
2021/12/23 04:23:49;;;;;;;7.13;6.43;;;;;;;10.06;66.66;102292.63;5042815;27;102558;-48
2021/12/23 04:26:15;;;;;;;8.18;6.45;;;;;;;10.08;65.78;102295.13;5053468;27;103674;-48
2021/12/23 04:28:46;;;;;;;7.55;6.60;;;;;;;10.06;66.13;102287.19;5053206;27;102130;-49
2021/12/23 04:31:14;;;;;;;7.00;6.07;;;;;;;10.06;66.50;102291.78;5037797;27;102266;-50
2021/12/23 04:33:40;;;;;;;7.95;6.60;;;;;;;10.06;65.87;102298.06;5038482;27;102644;-49
2021/12/23 04:36:08;;;;;;;6.80;6.07;;;;;;;10.05;66.04;102296.41;5036768;27;104143;-49
2021/12/23 04:38:37;;;;;;;8.85;6.20;;;;;;;10.05;66.32;102296.41;5036525;27;102313;-50
2021/12/23 04:41:05;;;;;;;7.72;6.22;;;;;;;10.07;66.50;102298.91;5053050;27;102042;-49
2021/12/23 04:43:32;;;;;;;6.40;5.72;;;;;;;10.05;66.16;102301.00;5037081;27;106188;-48
2021/12/23 04:45:58;;;;;;;7.22;6.05;;;;;;;10.06;66.01;102299.94;5044753;27;103871;-48
2021/12/23 04:48:26;;;;;;;7.20;6.13;;;;;;;10.05;66.61;102292.84;5050983;27;102303;-48
2021/12/23 04:50:52;;;;;;;7.15;5.90;;;;;;;10.04;66.43;102294.75;5040285;27;102289;-49
2021/12/23 04:53:19;;;;;;;6.95;6.22;;;;;;;10.05;66.40;102295.56;5037455;27;102325;-49
2021/12/23 04:55:46;;;;;;;6.72;6.03;;;;;;;10.05;66.46;102306.44;5036782;27;103822;-49
2021/12/23 04:58:13;;;;;;;6.95;6.00;;;;;;;10.04;66.07;102304.78;5040630;27;102095;-48
2021/12/23 05:00:42;;;;;;;8.65;6.25;;;;;;;10.04;65.96;102304.78;5048974;27;102099;-48
2021/12/23 05:03:08;;;;;;;7.70;6.30;;;;;;;10.04;66.32;102307.53;5043646;27;102361;-48
2021/12/23 05:05:35;;;;;;;7.80;6.03;;;;;;;10.04;65.69;102304.78;5044907;27;103912;-48
2021/12/23 05:08:02;;;;;;;7.25;5.85;;;;;;;10.03;65.85;102306.69;5036873;27;102547;-48
2021/12/23 05:10:28;;;;;;;9.15;6.50;;;;;;;10.03;65.93;102305.88;5043683;27;102379;-48
2021/12/23 05:12:56;;;;;;;7.65;6.00;;;;;;;10.02;66.06;102306.91;5038610;27;102208;-49
2021/12/23 05:15:23;;;;;;;6.38;5.40;;;;;;;10.03;66.63;102311.31;5051439;27;104031;-48
2021/12/23 05:17:49;;;;;;;7.32;6.20;;;;;;;10.02;66.33;102312.34;5034103;27;101973;-48
2021/12/23 05:20:18;;;;;;;8.20;6.13;;;;;;;10.02;66.59;102320.50;5044974;27;102674;-48
2021/12/23 05:22:45;;;;;;;8.43;6.13;;;;;;;10.02;65.89;102325.94;5044709;27;102283;-49
2021/12/23 05:25:11;;;;;;;7.47;6.50;;;;;;;10.01;66.08;102324.28;5051415;27;103735;-48
2021/12/23 05:27:41;;;;;;;7.70;6.43;;;;;;;10.01;65.92;102327.00;5048454;27;102377;-48
2021/12/23 05:30:13;;;;;;;9.00;6.60;;;;;;;10.00;65.96;102328.06;5035614;27;102678;-48
2021/12/23 05:32:42;;;;;;;8.60;6.38;;;;;;;10.01;66.11;102343.31;5041646;27;102812;-48
2021/12/23 05:35:11;;;;;;;8.45;6.85;;;;;;;10.01;66.20;102348.78;5045834;27;108099;-48
2021/12/23 05:37:37;;;;;;;7.15;5.78;;;;;;;9.99;65.67;102346.28;5048435;27;102328;-48
2021/12/23 05:40:06;;;;;;;7.75;6.22;;;;;;;10.01;65.81;102351.50;5046593;27;102196;-49
2021/12/23 05:42:33;;;;;;;8.43;6.15;;;;;;;10.00;65.62;102353.38;5053990;27;102562;-48
2021/12/23 05:44:59;;;;;;;8.63;6.43;;;;;;;10.00;66.22;102353.38;5042164;27;103874;-48
2021/12/23 05:47:27;;;;;;;9.45;6.55;;;;;;;10.00;65.71;102352.56;5046514;27;102141;-48
2021/12/23 05:49:54;;;;;;;8.63;6.25;;;;;;;9.99;66.30;102354.44;5039945;27;102146;-48
2021/12/23 05:52:20;;;;;;;8.43;6.50;;;;;;;9.99;65.78;102368.06;5042269;27;102635;-48
2021/12/23 05:54:46;;;;;;;8.55;6.65;;;;;;;9.99;65.92;102373.50;5040315;27;104244;-48
2021/12/23 05:57:13;;;;;;;7.38;6.25;;;;;;;10.01;65.66;102375.97;5041083;27;102000;-49
2021/12/23 05:59:40;;;;;;;7.32;6.35;;;;;;;10.00;66.00;102379.75;5052745;27;102566;-48
2021/12/23 06:02:07;;;;;;;8.18;6.43;;;;;;;10.00;65.58;102387.91;5047248;27;102208;-47
2021/12/23 06:04:35;;;;;;;6.82;6.00;;;;;;;10.01;66.28;102389.56;5037906;27;103888;-49
2021/12/23 06:07:03;;;;;;;9.00;6.70;;;;;;;10.00;66.22;102391.47;5047802;27;102827;-49
2021/12/23 06:09:29;;;;;;;10.07;7.15;;;;;;;10.00;66.50;102380.59;5043821;27;104251;-49
2021/12/23 06:11:57;;;;;;;8.48;6.65;;;;;;;10.00;66.11;102396.91;5045580;27;102225;-48
2021/12/23 06:14:24;;;;;;;7.53;6.63;;;;;;;10.01;65.73;102397.72;5040473;27;102742;-48
2021/12/23 06:16:51;;;;;;;8.05;6.55;;;;;;;10.00;66.11;102396.91;5041401;27;103577;-48
2021/12/23 06:19:18;;;;;;;9.35;6.95;;;;;;;10.01;66.00;102400.44;5045361;27;102717;-48
2021/12/23 06:21:46;;;;;;;9.95;7.32;;;;;;;10.01;66.19;102411.31;5042760;27;102482;-48
2021/12/23 06:24:12;;;;;;;8.07;6.75;;;;;;;10.01;66.51;102408.59;5047214;27;103922;-48
2021/12/23 06:26:39;;;;;;;8.20;6.82;;;;;;;10.01;66.31;102403.16;5047817;27;102322;-48
2021/12/23 06:29:05;;;;;;;9.27;7.07;;;;;;;10.01;65.58;102405.88;5039479;27;102371;-48
2021/12/23 06:31:32;;;;;;;9.98;7.22;;;;;;;10.02;65.87;102411.09;5048681;27;102579;-48
2021/12/23 06:33:58;;;;;;;9.20;7.30;;;;;;;10.02;66.25;102415.69;5048869;27;103912;-48
2021/12/23 06:36:25;;;;;;;8.70;6.82;;;;;;;10.02;65.71;102410.25;5041491;27;102387;-48
2021/12/23 06:38:53;;;;;;;8.75;6.85;;;;;;;10.02;65.73;102418.41;5037005;27;102303;-49
2021/12/23 06:41:20;;;;;;;8.70;6.75;;;;;;;10.02;65.94;102411.09;5043714;27;102245;-49
2021/12/23 06:43:47;;;;;;;8.15;6.63;;;;;;;10.02;65.92;102404.81;5043713;27;103947;-48
2021/12/23 06:46:13;;;;;;;8.43;6.40;;;;;;;10.02;65.69;102404.81;5052572;27;102199;-48
2021/12/23 06:48:40;;;;;;;8.38;6.30;;;;;;;10.02;66.09;102404.81;5042814;27;102388;-48
2021/12/23 06:51:06;;;;;;;9.65;6.60;;;;;;;10.03;66.33;102406.50;5046859;27;102599;-48
2021/12/23 06:53:33;;;;;;;9.93;6.93;;;;;;;10.02;65.77;102402.94;5053729;27;103766;-48
2021/12/23 06:56:02;;;;;;;9.20;6.45;;;;;;;10.01;66.14;102409.44;5039304;27;102419;-48
2021/12/23 06:58:31;;;;;;;9.10;7.38;;;;;;;10.01;66.15;102404.00;5044614;27;103176;-48
2021/12/23 07:00:58;;;;;;;8.20;6.95;;;;;;;10.01;66.18;102404.00;5040787;27;102713;-48
2021/12/23 07:03:33;;;;;;;8.48;6.95;;;;;;;10.02;66.15;102410.25;5050941;27;103865;-49
2021/12/23 07:06:06;;;;;;;8.52;6.70;;;;;;;10.00;66.05;102417.84;5041445;27;102457;-48
2021/12/23 07:08:35;;;;;;;8.48;6.88;;;;;;;10.00;65.96;102412.41;5038049;27;103703;-48
2021/12/23 07:11:04;;;;;;;8.65;6.47;;;;;;;10.00;66.27;102418.66;5047506;27;102313;-50
2021/12/23 07:13:32;;;;;;;7.55;6.65;;;;;;;10.00;66.13;102418.66;5047999;27;103951;-48
2021/12/23 07:16:00;;;;;;;7.53;6.55;;;;;;;10.00;66.04;102417.84;5042299;27;102231;-50
2021/12/23 07:18:30;;;;;;;8.48;7.07;;;;;;;9.99;65.87;102416.16;5038056;27;102033;-49
2021/12/23 07:20:57;;;;;;;7.78;6.78;;;;;;;9.99;66.36;102414.28;5041392;27;102148;-49
2021/12/23 07:23:24;;;;;;;8.98;6.97;;;;;;;9.99;65.49;102419.72;5040880;27;103879;-48
2021/12/23 07:25:50;;;;;;;9.68;6.53;;;;;;;10.00;65.76;102417.84;5050816;27;102517;-50
2021/12/23 07:28:18;;;;;;;9.93;7.10;;;;;;;9.99;65.88;102416.16;5035137;27;102561;-48
2021/12/23 07:30:45;;;;;;;8.27;7.13;;;;;;;9.98;66.20;102411.78;5037801;27;102234;-48
2021/12/23 07:33:12;;;;;;;8.93;7.05;;;;;;;9.98;66.11;102415.31;5035427;27;104504;-48
2021/12/23 07:35:40;;;;;;;7.70;6.40;;;;;;;9.98;66.03;102417.22;5041884;27;102504;-49
2021/12/23 07:38:10;;;;;;;8.57;7.50;;;;;;;9.98;66.34;102430.81;5051822;27;102491;-48
2021/12/23 07:40:37;;;;;;;8.85;7.07;;;;;;;9.97;65.77;102421.81;5042782;27;102461;-48
2021/12/23 07:43:20;;;;;;;8.60;6.70;;;;;;;9.98;65.50;102425.38;5053458;27;103965;-48
2021/12/23 07:45:48;;;;;;;9.40;7.32;;;;;;;9.96;66.17;102422.06;5041668;27;102240;-48
2021/12/23 07:48:15;;;;;;;9.73;7.40;;;;;;;9.97;65.31;102418.28;5036698;27;102172;-49
2021/12/23 07:50:41;;;;;;;9.00;6.95;;;;;;;9.96;65.43;102424.78;5039221;27;102717;-47
2021/12/23 07:53:08;;;;;;;9.30;7.18;;;;;;;9.96;65.52;102422.06;5035709;27;103878;-49
2021/12/23 07:55:34;;;;;;;8.32;7.05;;;;;;;9.95;66.15;102423.94;5036712;27;102294;-49
2021/12/23 07:58:01;;;;;;;8.70;6.75;;;;;;;9.96;66.26;102424.78;5037214;27;102528;-48
2021/12/23 08:00:29;;;;;;;8.80;7.07;;;;;;;9.94;65.28;102425.00;5036847;27;102093;-48
2021/12/23 08:02:57;;;;;;;8.17;6.83;;;;;;;9.96;66.07;102424.78;5032634;27;104320;-49
2021/12/23 08:05:24;;;;;;;8.82;6.95;;;;;;;9.95;65.49;102425.81;5019397;27;103580;-48
2021/12/23 08:07:50;;;;;;;7.40;6.70;;;;;;;9.94;65.34;102427.72;5023244;27;102635;-48
2021/12/23 08:10:17;;;;;;;8.68;7.20;;;;;;;9.94;65.34;102429.59;5039962;27;102656;-48
2021/12/23 08:12:44;;;;;;;8.23;7.00;;;;;;;9.94;65.90;102424.16;5030233;27;103971;-48
2021/12/23 08:15:10;;;;;;;9.32;6.75;;;;;;;9.94;65.42;102426.88;5023001;27;102910;-48
2021/12/23 08:17:38;;;;;;;7.43;6.32;;;;;;;9.93;65.29;102433.41;5035300;27;107674;-49
2021/12/23 08:20:07;;;;;;;7.18;6.43;;;;;;;9.93;66.02;102430.66;5040558;27;103544;-48
2021/12/23 08:22:34;;;;;;;9.85;7.22;;;;;;;9.93;65.25;102433.41;5017548;27;105197;-48
2021/12/23 08:25:01;;;;;;;8.15;6.68;;;;;;;9.93;65.22;102433.41;5040019;27;102636;-49
2021/12/23 08:27:30;;;;;;;7.85;7.05;;;;;;;9.93;65.49;102427.94;5047795;27;102353;-49
2021/12/23 08:29:57;;;;;;;8.52;6.68;;;;;;;9.92;65.54;102437.16;5054576;27;102364;-48
2021/12/23 08:32:23;;;;;;;7.72;6.53;;;;;;;9.92;65.58;102431.72;5037387;27;103953;-49
2021/12/23 08:34:50;;;;;;;9.10;6.85;;;;;;;9.92;65.74;102437.16;5044887;27;102274;-47
2021/12/23 08:37:17;;;;;;;8.85;7.03;;;;;;;9.91;65.44;102430.06;5046175;27;102147;-50
2021/12/23 08:39:47;;;;;;;8.23;6.80;;;;;;;9.91;65.03;102424.63;5043405;27;102589;-49
2021/12/23 08:42:14;;;;;;;7.28;6.13;;;;;;;9.91;65.27;102419.19;5043420;27;103920;-48
2021/12/23 08:44:47;;;;;;;8.30;7.00;;;;;;;9.90;65.55;102412.91;5045907;27;102165;-48
2021/12/23 08:47:14;;;;;;;7.95;6.90;;;;;;;9.91;65.86;102411.84;5037837;27;102176;-48
2021/12/23 08:49:41;;;;;;;7.95;6.60;;;;;;;9.90;65.24;102402.03;5052506;27;104302;-49
2021/12/23 08:52:08;;;;;;;9.18;7.00;;;;;;;9.90;65.41;102402.03;5047001;27;104144;-48
2021/12/23 08:54:36;;;;;;;7.22;6.35;;;;;;;9.90;65.51;102390.31;5041279;27;102751;-48
2021/12/23 08:57:07;;;;;;;8.00;6.45;;;;;;;9.90;65.58;102396.59;5046266;27;102194;-47
2021/12/23 08:59:34;;;;;;;8.35;7.38;;;;;;;9.89;65.44;102392.22;5036336;27;103282;-49
2021/12/23 09:02:01;;;;;;;9.55;7.30;;;;;;;9.89;65.55;102392.22;5045856;27;103917;-49
2021/12/23 09:04:28;;;;;;;43.15;30.73;;;;;;;9.89;65.80;102386.78;5044175;27;102358;-48
2021/12/23 09:06:55;;;;;;;12.30;7.55;;;;;;;9.89;65.30;102389.50;5035117;27;102181;-48
2021/12/23 09:09:33;;;;;;;8.90;7.38;;;;;;;9.89;65.54;102383.22;5038273;27;103155;-48
2021/12/23 09:12:03;;;;;;;9.65;7.63;;;;;;;9.89;65.60;102380.50;5039513;27;103929;-48
2021/12/23 09:14:31;;;;;;;8.98;6.95;;;;;;;9.90;65.75;102384.88;5041769;27;102416;-48
2021/12/23 09:16:58;;;;;;;9.13;7.23;;;;;;;9.89;64.82;102377.78;5035716;27;102587;-48
2021/12/23 09:19:24;;;;;;;10.50;7.45;;;;;;;9.89;65.21;102377.78;5053228;27;102282;-49
2021/12/23 09:21:51;;;;;;;10.43;7.78;;;;;;;9.89;64.87;102372.34;5038320;27;104041;-47
2021/12/23 09:24:22;;;;;;;8.50;6.97;;;;;;;9.89;65.21;102369.63;5037065;27;102358;-48
2021/12/23 09:26:58;;;;;;;8.18;7.30;;;;;;;9.88;65.09;102363.34;5040804;27;102368;-50
2021/12/23 09:34:50;;;;;;;9.18;7.32;;;;;;;9.89;65.48;102366.91;5040387;27;102244;-50
2021/12/23 09:37:18;;;;;;;8.57;6.78;;;;;;;9.87;65.11;102357.06;5034731;27;103755;-48
2021/12/23 09:39:45;;;;;;;8.88;7.57;;;;;;;9.87;65.10;102358.97;5044684;27;102804;-50
2021/12/23 09:42:13;;;;;;;8.77;6.72;;;;;;;9.89;65.47;102356.03;5037652;27;103957;-48
2021/12/23 09:44:42;;;;;;;9.73;7.20;;;;;;;9.89;64.86;102356.03;5044699;27;102956;-49
2021/12/23 09:47:09;;;;;;;8.68;6.95;;;;;;;9.87;65.11;102354.34;5039274;27;102264;-49
2021/12/23 09:49:35;;;;;;;8.93;6.95;;;;;;;9.87;65.19;102348.91;5037316;27;102843;-48
2021/12/23 09:52:04;;;;;;;8.52;6.68;;;;;;;9.86;65.15;102347.25;5039387;27;103984;-48
2021/12/23 09:54:30;;;;;;;10.55;7.57;;;;;;;9.87;65.13;102346.19;5036985;27;102049;-49
2021/12/23 09:56:57;;;;;;;8.45;6.88;;;;;;;9.87;65.68;102348.91;5035030;27;102702;-48
2021/12/23 09:59:27;;;;;;;8.82;7.05;;;;;;;9.89;65.40;102345.16;5043855;27;102983;-49
2021/12/23 10:01:55;;;;;;;11.20;7.55;;;;;;;9.86;65.10;102341.81;5038253;27;104113;-48
2021/12/23 10:04:22;;;;;;;10.10;7.10;;;;;;;9.86;65.08;102336.38;5034014;27;102821;-48
2021/12/23 10:06:51;;;;;;;7.85;6.57;;;;;;;9.88;65.01;102333.44;5038810;27;102039;-49
2021/12/23 10:09:35;;;;;;;8.13;7.00;;;;;;;9.88;65.16;102322.53;5038662;27;102160;-48
2021/12/23 10:31:28;;;;;;;10.63;7.88;;;;;;;9.90;65.51;102303.31;5037314;27;102399;-48
2021/12/23 10:39:43;;;;;;;9.07;7.00;;;;;;;9.89;65.30;102301.66;5046600;27;102320;-48
2021/12/23 10:42:10;;;;;;;9.75;7.35;;;;;;;9.89;64.93;102296.22;5047263;27;102239;-48
2021/12/23 10:44:37;;;;;;;9.52;7.28;;;;;;;9.91;65.61;102291.34;5036515;27;105365;-49
2021/12/23 10:47:06;;;;;;;8.95;6.72;;;;;;;9.89;65.04;102293.50;5041026;27;103951;-48
2021/12/23 10:49:47;;;;;;;8.48;6.90;;;;;;;9.89;64.90;102291.59;5036294;27;102066;-48
2021/12/23 10:52:19;;;;;;;9.35;7.47;;;;;;;9.91;64.93;102294.06;5049465;27;102873;-48
2021/12/23 11:00:15;;;;;;;7.82;6.07;;;;;;;9.91;65.33;102283.19;5044681;27;102214;-48
2021/12/23 11:03:00;;;;;;;7.82;6.88;;;;;;;9.91;65.01;102277.75;5048534;27;102372;-50
2021/12/23 11:05:34;;;;;;;8.88;6.32;;;;;;;9.90;65.21;102271.50;5038145;27;103896;-48
2021/12/23 11:39:11;;;;;;;7.40;6.60;;;;;;;9.92;65.02;102252.22;5049274;27;103938;-48
2021/12/23 11:46:14;;;;;;;7.40;6.60;;;;;;;9.93;65.59;102240.31;5051734;27;103721;-48
2021/12/23 11:48:44;;;;;;;8.02;6.70;;;;;;;9.92;65.06;102241.34;5043222;27;105326;-49
2021/12/23 11:51:28;;;;;;;7.60;6.35;;;;;;;9.91;64.91;102236.97;5039430;27;102425;-48
2021/12/23 11:53:57;;;;;;;7.45;6.63;;;;;;;9.91;65.73;102240.50;5042673;27;101893;-49
2021/12/23 11:56:25;;;;;;;7.85;6.53;;;;;;;9.92;65.83;102242.19;5047213;27;102753;-48
2021/12/23 11:58:56;;;;;;;8.23;6.68;;;;;;;9.92;65.57;102246.78;5038450;27;103399;-48
2021/12/23 12:01:25;;;;;;;7.13;5.93;;;;;;;9.92;65.71;102253.06;5038916;27;102267;-48
2021/12/23 12:03:53;;;;;;;;;;;;;;;9.92;65.42;102247.63;5050993;27;102344;-47
2021/12/23 12:06:23;;;;;;;8.95;6.38;;;;;;;9.92;65.57;102244.06;5049580;27;102352;-48
2021/12/23 12:08:54;;;;;;;8.23;6.93;;;;;;;9.91;65.42;102236.97;5042570;27;105726;-48
2021/12/23 12:11:24;;;;;;;7.40;5.85;;;;;;;9.91;65.83;102240.50;5036497;27;102256;-49
2021/12/23 12:13:51;;;;;;;7.57;6.25;;;;;;;9.91;65.24;102234.25;5043116;27;102133;-51
2021/12/23 12:16:30;;;;;;;9.25;6.30;;;;;;;9.90;65.60;102238.88;5041919;27;102740;-48
2021/12/23 12:18:56;;;;;;;8.45;6.47;;;;;;;9.89;65.06;102231.78;5046606;27;108046;-48
2021/12/23 12:21:25;;;;;;;7.60;6.80;;;;;;;9.90;65.65;102227.16;5041417;27;102347;-49
2021/12/23 12:24:16;;;;;;;7.63;6.13;;;;;;;9.89;65.20;102230.94;5042510;27;102228;-49
2021/12/23 12:26:56;;;;;;;8.00;6.40;;;;;;;9.90;65.58;102230.69;5040062;27;103207;-48
2021/12/23 12:29:33;;;;;;;8.60;6.43;;;;;;;9.90;65.41;102227.16;5044141;27;103892;-48
2021/12/23 12:31:59;;;;;;;7.15;6.45;;;;;;;9.89;65.75;102229.06;5035178;27;102288;-49
2021/12/23 12:34:32;;;;;;;7.95;6.70;;;;;;;9.90;65.55;102238.03;5036276;27;102121;-50
2021/12/23 12:36:59;;;;;;;8.00;6.45;;;;;;;9.90;65.10;102232.59;5048998;27;102614;-49
2021/12/23 12:39:32;;;;;;;7.95;6.20;;;;;;;9.90;65.62;102238.03;5053495;27;103951;-49
2021/12/23 12:42:07;;;;;;;7.57;6.63;;;;;;;9.89;65.25;102237.22;5038216;27;102065;-48
2021/12/23 12:44:49;;;;;;;11.38;7.55;;;;;;;9.89;64.85;102241.81;5041266;27;102115;-49